createdAt,value
2022-08-09T00:01:16.329Z,67.50
2022-08-09T00:04:06.321Z,67.64
2022-08-09T00:06:50.387Z,67.79
2022-08-09T00:09:26.406Z,67.80
2022-08-09T00:12:04.228Z,67.89
2022-08-09T00:14:39.377Z,67.84
2022-08-09T00:17:15.164Z,68.24
2022-08-09T00:20:12.180Z,68.37
2022-08-09T00:22:47.845Z,68.57
2022-08-09T00:25:23.051Z,68.67
2022-08-09T00:28:03.949Z,68.77
2022-08-09T00:30:38.676Z,68.95
2022-08-09T00:33:16.120Z,68.92
2022-08-09T00:35:53.305Z,69.55
2022-08-09T00:38:28.267Z,69.16
2022-08-09T00:41:02.143Z,69.23
2022-08-09T00:44:14.658Z,69.48
2022-08-09T00:46:55.932Z,69.16
2022-08-09T00:49:33.143Z,69.40
2022-08-09T00:52:17.312Z,69.48
2022-08-09T00:54:54.166Z,69.40
2022-08-09T00:57:33.659Z,69.74
2022-08-09T01:00:21.825Z,69.69
2022-08-09T01:03:21.114Z,69.94
2022-08-09T01:06:54.877Z,69.96
2022-08-09T01:10:00.076Z,70.17
2022-08-09T01:12:53.844Z,70.14
2022-08-09T01:15:31.369Z,70.23
2022-08-09T01:18:30.542Z,70.52
2022-08-09T01:21:41.120Z,70.44
2022-08-09T01:24:50.540Z,71.28
2022-08-09T01:27:31.404Z,70.88
2022-08-09T01:30:35.465Z,72.46
2022-08-09T01:33:13.127Z,71.67
2022-08-09T01:36:01.280Z,71.59
2022-08-09T01:38:38.460Z,71.49
2022-08-09T01:41:25.947Z,71.51
2022-08-09T01:44:08.787Z,71.67
2022-08-09T01:46:47.032Z,73.20
2022-08-09T01:49:24.285Z,72.71
2022-08-09T01:52:07.414Z,72.31
2022-08-09T01:54:48.536Z,72.41
2022-08-09T01:57:40.169Z,72.40
2022-08-09T02:00:34.802Z,72.39
2022-08-09T02:03:13.763Z,72.59
2022-08-09T02:06:04.124Z,72.67
2022-08-09T02:08:58.120Z,72.68
2022-08-09T02:11:42.091Z,72.60
2022-08-09T02:14:26.268Z,72.82
2022-08-09T02:17:29.466Z,72.93
2022-08-09T02:19:58.515Z,72.96
2022-08-09T02:22:58.967Z,72.93
2022-08-09T02:25:42.724Z,72.86
2022-08-09T02:28:42.878Z,73.26
2022-08-09T02:31:34.065Z,73.35
2022-08-09T02:34:41.600Z,73.18
2022-08-09T02:37:31.742Z,73.22
2022-08-09T02:40:14.695Z,73.71
2022-08-09T02:43:02.665Z,73.94
2022-08-09T02:45:45.048Z,73.70
2022-08-09T02:48:31.111Z,74.48
2022-08-09T02:51:08.567Z,74.26
2022-08-09T02:54:01.655Z,74.02
2022-08-09T02:56:41.097Z,74.06
2022-08-09T02:59:26.196Z,74.06
2022-08-09T03:02:17.078Z,74.22
2022-08-09T03:04:52.441Z,74.47
2022-08-09T03:07:31.565Z,74.42
2022-08-09T03:10:10.824Z,74.45
2022-08-09T03:12:52.784Z,74.33
2022-08-09T03:16:04.118Z,74.46
2022-08-09T03:18:31.191Z,75.57
2022-08-09T03:21:07.426Z,75.75
2022-08-09T03:23:58.636Z,75.51
2022-08-09T03:26:58.617Z,75.39
2022-08-09T03:29:57.650Z,75.06
2022-08-09T03:32:39.058Z,75.08
2022-08-09T03:35:24.936Z,75.14
2022-08-09T03:38:10.660Z,75.27
2022-08-09T03:41:04.739Z,75.21
2022-08-09T03:43:39.133Z,75.25
2022-08-09T03:46:27.030Z,75.20
2022-08-09T03:49:08.767Z,75.19
2022-08-09T03:51:58.755Z,75.12
2022-08-09T03:54:40.433Z,75.85
2022-08-09T03:57:20.292Z,75.28
2022-08-09T03:59:59.448Z,75.09
2022-08-09T04:02:46.955Z,74.99
2022-08-09T04:05:27.780Z,74.84
2022-08-09T04:08:01.803Z,74.73
2022-08-09T04:10:35.662Z,74.68
2022-08-09T04:13:12.787Z,74.64
2022-08-09T04:16:19.509Z,74.41
2022-08-09T04:18:51.147Z,74.75
2022-08-09T04:21:25.269Z,74.83
2022-08-09T04:23:59.450Z,74.79
2022-08-09T04:26:35.136Z,74.71
2022-08-09T04:29:15.783Z,74.69
2022-08-09T04:31:49.821Z,74.61
2022-08-09T04:34:30.613Z,75.17
2022-08-09T04:45:09.546Z,73.43
2022-08-09T04:47:59.325Z,73.77
2022-08-09T04:50:37.981Z,73.62
2022-08-09T04:53:13.421Z,73.94
2022-08-09T04:55:58.260Z,73.82
2022-08-09T04:58:34.890Z,74.05
2022-08-09T05:01:16.089Z,73.97
2022-08-09T05:03:56.844Z,74.05
2022-08-09T05:09:23.040Z,73.46
2022-08-09T05:11:59.019Z,73.44
2022-08-09T05:14:32.707Z,73.37
2022-08-09T05:17:06.603Z,73.14
2022-08-09T05:20:01.967Z,73.08
2022-08-09T05:23:50.491Z,72.72
2022-08-09T05:25:32.601Z,72.69
2022-08-09T05:28:07.498Z,72.51
2022-08-09T05:30:41.828Z,72.51
2022-08-09T05:33:26.500Z,72.31
2022-08-09T05:36:10.124Z,72.25
2022-08-09T05:38:52.914Z,72.06
2022-08-09T05:41:27.224Z,71.72
2022-08-09T05:44:01.306Z,71.55
2022-08-09T05:46:35.171Z,71.29
2022-08-09T05:50:25.633Z,71.18
2022-08-09T05:52:08.044Z,70.68
2022-08-09T05:54:43.286Z,70.11
2022-08-09T05:57:19.801Z,69.71
2022-08-09T06:00:00.337Z,68.90
2022-08-09T06:02:34.773Z,68.49
2022-08-09T06:05:08.968Z,67.82
2022-08-09T06:07:43.065Z,67.17
2022-08-09T06:10:18.044Z,66.46
2022-08-09T06:13:02.915Z,66.43
2022-08-09T06:15:39.244Z,66.30
2022-08-09T06:18:16.774Z,66.00
2022-08-09T06:20:54.585Z,65.63
2022-08-09T06:23:58.570Z,65.83
2022-08-09T06:26:30.488Z,65.81
2022-08-09T06:29:05.622Z,65.84
2022-08-09T06:32:08.123Z,65.33
2022-08-09T06:34:39.278Z,65.42
2022-08-09T06:37:14.190Z,65.33
2022-08-09T06:40:00.193Z,65.00
2022-08-09T06:42:45.216Z,65.32
2022-08-09T06:46:05.973Z,64.56
2022-08-09T06:48:17.304Z,64.39
2022-08-09T06:51:06.226Z,64.21
2022-08-09T06:53:41.325Z,63.85
2022-08-09T06:56:14.469Z,63.57
2022-08-09T07:00:51.003Z,63.94
2022-08-09T07:01:54.524Z,63.71
2022-08-09T07:04:34.662Z,63.41
2022-08-09T07:07:11.802Z,63.51
2022-08-09T07:09:55.598Z,63.30
2022-08-09T07:12:38.740Z,62.80
2022-08-09T07:16:35.300Z,62.95
2022-08-09T07:18:11.621Z,62.71
2022-08-09T07:20:47.920Z,62.52
2022-08-09T07:23:21.403Z,62.33
2022-08-09T07:26:02.786Z,62.31
2022-08-09T07:28:38.192Z,61.93
2022-08-09T07:31:38.435Z,61.53
2022-08-09T07:34:21.187Z,61.42
2022-08-09T07:37:02.859Z,61.66
2022-08-09T07:39:41.469Z,61.17
2022-08-09T07:42:17.158Z,61.08
2022-08-09T07:44:56.256Z,60.80
2022-08-09T07:47:49.579Z,60.97
2022-08-09T07:50:34.881Z,60.82
2022-08-09T07:53:12.885Z,60.60
2022-08-09T07:56:03.122Z,60.42
2022-08-09T07:58:42.182Z,60.11
2022-08-09T08:01:25.534Z,59.60
2022-08-09T08:04:10.513Z,59.06
2022-08-09T08:06:55.622Z,59.19
2022-08-09T08:09:35.553Z,59.11
2022-08-09T08:12:27.909Z,59.06
2022-08-09T08:15:05.090Z,58.93
2022-08-09T08:17:53.090Z,58.50
2022-08-09T08:20:33.045Z,58.23
2022-08-09T08:23:16.844Z,57.48
2022-08-09T08:26:06.517Z,57.05
2022-08-09T08:28:43.719Z,56.55
2022-08-09T08:31:16.748Z,56.60
2022-08-09T08:33:55.671Z,56.68
2022-08-09T08:36:31.172Z,55.96
2022-08-09T08:39:05.242Z,55.59
2022-08-09T08:41:50.306Z,55.43
2022-08-09T08:44:29.546Z,55.38
2022-08-09T08:47:12.349Z,54.57
2022-08-09T08:49:49.305Z,54.45
2022-08-09T08:55:23.576Z,52.32
2022-08-09T08:57:58.896Z,52.68
2022-08-09T09:00:34.338Z,53.08
2022-08-09T09:03:16.233Z,53.31
2022-08-09T09:06:04.845Z,53.20
2022-08-09T09:08:42.474Z,53.42
2022-08-09T09:11:19.913Z,53.78
2022-08-09T09:13:58.584Z,53.59
2022-08-09T09:16:34.921Z,52.99
2022-08-09T09:19:36.827Z,51.97
2022-08-09T09:22:12.434Z,51.66
2022-08-09T09:24:49.692Z,51.82
2022-08-09T09:28:06.448Z,51.84
2022-08-09T09:30:40.681Z,51.22
2022-08-09T09:33:17.885Z,50.98
2022-08-09T09:36:03.329Z,50.51
2022-08-09T09:38:57.598Z,50.66
2022-08-09T09:41:49.028Z,50.70
2022-08-09T09:44:36.985Z,50.08
2022-08-09T09:47:21.585Z,49.16
2022-08-09T09:50:13.598Z,48.63
2022-08-09T09:52:57.634Z,48.99
2022-08-09T09:55:33.299Z,48.47
2022-08-09T09:58:18.933Z,48.13
2022-08-09T10:01:00.610Z,47.84
2022-08-09T10:03:57.687Z,48.08
2022-08-09T10:06:47.114Z,47.98
2022-08-09T10:09:27.339Z,47.60
2022-08-09T10:12:12.047Z,46.80
2022-08-09T10:16:09.470Z,46.89
2022-08-09T10:18:22.752Z,47.49
2022-08-09T10:21:12.551Z,46.20
2022-08-09T10:23:49.253Z,45.72
2022-08-09T10:26:26.814Z,45.52
2022-08-09T10:29:22.705Z,45.44
2022-08-09T10:32:37.512Z,45.52
2022-08-09T10:34:52.581Z,44.57
2022-08-09T10:37:27.336Z,43.70
2022-08-09T10:40:03.244Z,43.53
2022-08-09T10:42:37.316Z,43.28
2022-08-09T10:45:16.877Z,42.68
2022-08-09T10:48:16.476Z,42.57
2022-08-09T10:51:29.830Z,44.15
2022-08-09T10:54:15.495Z,43.17
2022-08-09T10:56:49.200Z,40.86
2022-08-09T10:59:31.329Z,39.86
2022-08-09T11:03:11.243Z,39.32
2022-08-09T11:05:25.397Z,37.88
2022-08-09T11:08:47.164Z,38.32
2022-08-09T11:11:23.337Z,38.64
2022-08-09T11:14:34.334Z,39.32
2022-08-09T11:17:27.372Z,40.74
2022-08-09T11:20:22.312Z,41.99
2022-08-09T11:22:58.458Z,41.77
2022-08-09T11:25:45.270Z,42.09
2022-08-09T11:28:38.686Z,42.32
2022-08-09T11:31:52.741Z,42.35
2022-08-09T11:34:32.799Z,42.02
2022-08-09T11:37:07.775Z,41.43
2022-08-09T11:40:07.235Z,41.32
2022-08-09T11:42:52.359Z,41.03
2022-08-09T11:45:42.049Z,41.38
2022-08-09T11:48:28.102Z,41.37
2022-08-09T11:51:19.751Z,40.53
2022-08-09T11:54:29.926Z,39.72
2022-08-09T11:57:51.553Z,39.21
2022-08-09T12:00:38.874Z,39.48
2022-08-09T12:03:56.147Z,39.91
2022-08-09T12:06:26.701Z,39.58
2022-08-09T12:09:19.719Z,40.07
2022-08-09T12:12:13.232Z,40.44
2022-08-09T12:15:07.484Z,40.15
2022-08-09T12:17:52.188Z,40.25
2022-08-09T12:20:29.236Z,40.55
2022-08-09T12:23:03.766Z,39.52
2022-08-09T12:25:38.401Z,39.37
2022-08-09T12:28:59.389Z,38.59
2022-08-09T12:31:58.028Z,38.54
2022-08-09T12:34:35.206Z,38.99
2022-08-09T12:37:23.393Z,38.94
2022-08-09T12:40:02.656Z,37.68
2022-08-09T12:42:36.492Z,37.51
2022-08-09T12:45:34.649Z,37.45
2022-08-09T12:48:30.883Z,37.73
2022-08-09T12:51:07.020Z,37.90
2022-08-09T12:53:44.919Z,37.03
2022-08-09T12:56:36.932Z,37.30
2022-08-09T12:59:57.999Z,36.88
2022-08-09T13:02:22.987Z,37.19
2022-08-09T13:05:05.735Z,37.82
2022-08-09T13:07:51.488Z,38.46
2022-08-09T13:10:27.544Z,38.40
2022-08-09T13:13:11.449Z,38.91
2022-08-09T13:16:02.721Z,39.62
2022-08-09T13:18:48.957Z,39.79
2022-08-09T13:22:37.087Z,40.25
2022-08-09T13:24:52.682Z,40.29
2022-08-09T13:27:48.662Z,40.76
2022-08-09T13:30:50.129Z,41.10
2022-08-09T13:33:52.407Z,40.89
2022-08-09T13:36:40.413Z,40.79
2022-08-09T13:41:55.275Z,40.77
2022-08-09T13:42:16.019Z,40.24
2022-08-09T13:44:50.651Z,39.92
2022-08-09T13:47:33.902Z,39.97
2022-08-09T13:50:31.170Z,39.81
2022-08-09T13:53:07.268Z,39.55
2022-08-09T13:55:42.014Z,39.45
2022-08-09T13:58:19.861Z,39.36
2022-08-09T14:00:53.367Z,39.27
2022-08-09T14:04:04.834Z,39.46
2022-08-09T14:06:26.587Z,39.81
2022-08-09T14:09:00.574Z,39.82
2022-08-09T14:11:46.951Z,39.98
2022-08-09T14:14:27.031Z,40.31
2022-08-09T14:17:02.968Z,40.67
2022-08-09T14:19:36.038Z,40.65
2022-08-09T14:22:10.581Z,40.28
2022-08-09T14:24:47.059Z,40.20
2022-08-09T14:27:29.115Z,40.38
2022-08-09T14:30:34.459Z,39.89
2022-08-09T14:33:08.675Z,39.64
2022-08-09T14:35:52.916Z,39.65
2022-08-09T14:38:29.621Z,39.73
2022-08-09T14:41:12.844Z,39.83
2022-08-09T14:43:58.103Z,39.80
2022-08-09T14:46:55.487Z,39.74
2022-08-09T14:49:26.865Z,40.28
2022-08-09T14:52:02.063Z,40.50
2022-08-09T14:54:36.024Z,40.73
2022-08-09T14:57:12.659Z,41.22
2022-08-09T14:59:48.695Z,41.58
2022-08-09T15:02:22.703Z,41.93
2022-08-09T15:04:57.392Z,42.47
2022-08-09T15:07:31.545Z,43.33
2022-08-09T15:10:11.234Z,43.57
2022-08-09T15:12:49.870Z,44.16
2022-08-09T15:15:22.875Z,44.28
2022-08-09T15:17:55.898Z,44.76
2022-08-09T15:21:56.827Z,45.19
2022-08-09T15:24:03.297Z,45.67
2022-08-09T15:26:31.489Z,45.55
2022-08-09T15:29:08.534Z,46.10
2022-08-09T15:32:03.299Z,46.40
2022-08-09T15:34:36.365Z,47.17
2022-08-09T15:37:38.161Z,50.07
2022-08-09T15:40:32.297Z,62.85
2022-08-09T15:43:07.938Z,91.40
2022-08-09T15:46:07.614Z,100.00
2022-08-09T15:48:44.219Z,100.00
2022-08-09T15:52:02.010Z,59.60
2022-08-09T15:54:53.249Z,74.75
2022-08-09T15:57:35.117Z,100.00
2022-08-09T16:00:25.193Z,79.80
2022-08-09T16:03:29.386Z,100.00
2022-08-09T16:06:31.398Z,77.56
2022-08-09T16:09:10.185Z,97.80
2022-08-09T16:11:50.366Z,100.00
2022-08-09T16:14:32.785Z,79.80
2022-08-09T16:17:07.312Z,100.00
2022-08-09T16:19:49.650Z,100.00
2022-08-09T16:22:48.902Z,100.00
2022-08-09T16:25:36.774Z,100.00
2022-08-09T16:28:16.191Z,100.00
2022-08-09T16:30:58.921Z,100.00
2022-08-09T16:33:34.976Z,100.00
2022-08-09T16:36:14.528Z,100.00
2022-08-09T16:38:53.676Z,100.00
2022-08-09T16:42:03.071Z,100.00
2022-08-09T16:44:29.787Z,100.00
2022-08-09T16:48:38.781Z,100.00
2022-08-09T16:50:29.423Z,100.00
2022-08-09T16:52:56.188Z,100.00
2022-08-09T16:55:31.489Z,100.00
2022-08-09T16:58:24.891Z,100.00
2022-08-09T17:01:01.316Z,100.00
2022-08-09T17:03:35.668Z,100.00
2022-08-09T17:06:32.005Z,100.00
2022-08-09T17:09:16.223Z,100.00
2022-08-09T17:12:01.723Z,100.00
2022-08-09T17:14:49.108Z,100.00
2022-08-09T17:17:28.179Z,100.00
2022-08-09T17:20:35.691Z,100.00
2022-08-09T17:23:02.853Z,100.00
2022-08-09T17:25:39.498Z,100.00
2022-08-09T17:28:13.784Z,100.00
2022-08-09T17:30:48.134Z,100.00
2022-08-09T17:33:23.045Z,100.00
2022-08-09T17:35:57.946Z,100.00
2022-08-09T17:38:37.131Z,100.00
2022-08-09T17:41:15.117Z,100.00
2022-08-09T17:44:36.477Z,100.00
2022-08-09T17:46:55.238Z,100.00
2022-08-09T17:49:33.057Z,100.00
2022-08-09T17:52:09.224Z,100.00
2022-08-09T17:54:58.340Z,100.00
2022-08-09T17:58:02.883Z,100.00
2022-08-09T18:00:43.874Z,100.00
2022-08-09T18:03:23.473Z,99.26
2022-08-09T18:05:57.889Z,99.20
2022-08-09T18:08:36.204Z,99.73
2022-08-09T18:11:16.391Z,99.89
2022-08-09T18:13:57.706Z,100.00
2022-08-09T18:16:39.341Z,99.88
2022-08-09T18:20:57.010Z,98.65
2022-08-09T18:22:22.583Z,98.47
2022-08-09T18:25:00.269Z,96.84
2022-08-09T18:28:03.888Z,96.15
2022-08-09T18:30:34.996Z,94.31
2022-08-09T18:33:23.067Z,96.96
2022-08-09T18:36:00.391Z,97.26
2022-08-09T18:38:33.652Z,97.81
2022-08-09T18:41:07.817Z,97.91
2022-08-09T18:43:52.976Z,97.38
2022-08-09T18:46:50.227Z,96.96
2022-08-09T18:49:25.773Z,94.82
2022-08-09T18:51:59.122Z,97.87
2022-08-09T18:54:32.765Z,97.68
2022-08-09T18:57:07.683Z,97.82
2022-08-09T18:59:51.208Z,96.74
2022-08-09T19:02:33.466Z,94.26
2022-08-09T19:05:19.664Z,94.48
2022-08-09T19:08:10.299Z,95.49
2022-08-09T19:10:48.446Z,94.05
2022-08-09T19:13:38.016Z,95.82
2022-08-09T19:16:18.317Z,96.78
2022-08-09T19:18:56.316Z,95.38
2022-08-09T19:21:47.647Z,95.43
2022-08-09T19:24:35.982Z,94.54
2022-08-09T19:27:15.021Z,92.71
2022-08-09T19:30:23.821Z,92.04
2022-08-09T19:32:44.677Z,91.40
2022-08-09T19:35:18.489Z,91.17
2022-08-09T19:37:54.543Z,90.64
2022-08-09T19:40:33.450Z,86.96
2022-08-09T19:43:10.342Z,89.15
2022-08-09T19:45:58.719Z,90.19
2022-08-09T19:49:02.397Z,85.95
2022-08-09T19:51:55.385Z,86.31
2022-08-09T19:54:31.254Z,87.72
2022-08-09T19:57:05.510Z,87.70
2022-08-09T19:59:59.365Z,87.68
2022-08-09T20:04:12.207Z,88.54
2022-08-09T20:05:46.480Z,89.75
2022-08-09T20:08:25.161Z,89.64
2022-08-09T20:11:09.490Z,89.50
2022-08-09T20:13:53.908Z,87.62
2022-08-09T20:16:34.395Z,84.15
2022-08-09T20:19:47.706Z,85.22
2022-08-09T20:22:35.774Z,86.20
2022-08-09T20:25:13.218Z,85.97
2022-08-09T20:27:58.693Z,87.29
2022-08-09T20:30:34.188Z,85.99
2022-08-09T20:33:07.471Z,86.09
2022-08-09T20:35:42.474Z,86.38
2022-08-09T20:38:33.116Z,86.60
2022-08-09T20:41:18.794Z,86.65
2022-08-09T20:44:10.429Z,85.91
2022-08-09T20:46:45.246Z,83.12
2022-08-09T20:49:18.523Z,82.57
2022-08-09T20:51:52.398Z,83.95
2022-08-09T20:54:27.475Z,85.16
2022-08-09T20:57:02.702Z,85.17
2022-08-09T21:00:20.760Z,85.15
2022-08-09T21:02:32.396Z,84.80
2022-08-09T21:05:55.007Z,85.72
2022-08-09T21:08:01.880Z,85.06
2022-08-09T21:10:35.613Z,85.83
2022-08-09T21:13:12.335Z,85.93
2022-08-09T21:15:52.182Z,85.16
2022-08-09T21:18:30.645Z,86.35
2022-08-09T21:21:17.212Z,86.50
2022-08-09T21:23:55.573Z,87.66
2022-08-09T21:26:37.728Z,86.88
2022-08-09T21:29:13.529Z,86.55
2022-08-09T21:31:58.653Z,86.13
2022-08-09T21:34:35.864Z,86.10
2022-08-09T21:37:18.126Z,86.98
2022-08-09T21:39:55.810Z,87.74
2022-08-09T21:42:31.435Z,87.86
2022-08-09T21:45:05.227Z,88.48
2022-08-09T21:47:40.241Z,89.05
2022-08-09T21:50:22.273Z,89.13
2022-08-09T21:53:00.337Z,88.88
2022-08-09T21:55:34.886Z,89.65
2022-08-09T21:58:08.372Z,89.38
2022-08-09T22:00:49.062Z,88.61
2022-08-09T22:03:26.612Z,88.73
2022-08-09T22:06:01.462Z,88.95
2022-08-09T22:08:34.542Z,88.62
2022-08-09T22:12:06.173Z,88.94
2022-08-09T22:14:13.265Z,90.09
2022-08-09T22:19:58.748Z,88.98
2022-08-09T22:22:37.232Z,88.47
2022-08-09T22:26:08.006Z,87.35
2022-08-09T22:28:07.427Z,88.51
2022-08-09T22:30:48.530Z,88.58
2022-08-09T22:33:24.445Z,89.31
2022-08-09T22:36:14.686Z,89.22
2022-08-09T22:38:54.754Z,87.61
2022-08-09T22:41:28.175Z,87.20
2022-08-09T22:44:04.229Z,86.85
2022-08-09T22:48:18.732Z,87.17
2022-08-09T22:49:36.804Z,86.77
2022-08-09T22:52:15.858Z,87.61
2022-08-09T22:54:49.429Z,85.44
2022-08-09T22:57:22.995Z,84.33
2022-08-09T23:00:12.065Z,85.48
2022-08-09T23:02:46.195Z,86.65
2022-08-09T23:05:21.624Z,84.84
2022-08-09T23:08:27.284Z,84.11
2022-08-09T23:11:05.692Z,86.24
2022-08-09T23:13:38.546Z,86.46
2022-08-09T23:16:14.188Z,87.22
2022-08-09T23:18:47.824Z,84.01
2022-08-09T23:21:26.093Z,85.55
2022-08-09T23:24:06.981Z,84.29
2022-08-09T23:26:41.964Z,80.46
2022-08-09T23:29:15.455Z,83.52
2022-08-09T23:31:52.514Z,84.73
2022-08-09T23:34:33.274Z,83.59
2022-08-09T23:37:07.564Z,84.23
2022-08-09T23:39:40.518Z,84.77
2022-08-09T23:42:13.764Z,85.07
2022-08-09T23:44:48.057Z,85.70
2022-08-09T23:47:21.219Z,85.73
2022-08-09T23:49:56.479Z,84.82
2022-08-09T23:52:29.431Z,83.58
2022-08-09T23:55:04.648Z,84.56
2022-08-09T23:57:41.626Z,81.29
